sensor_id;sensor_type;location;lat;lon;timestamp;pressure;altitude;pressure_sealevel;temperature;humidity
68179;BME280;54998;42.656;23.382;2022-07-10T00:00:09;94786.66;;;14.74;76.59
68179;BME280;54998;42.656;23.382;2022-07-10T00:02:36;94792.66;;;14.75;76.55
68179;BME280;54998;42.656;23.382;2022-07-10T00:05:02;94789.06;;;14.76;76.81
68179;BME280;54998;42.656;23.382;2022-07-10T00:07:28;94786.00;;;14.72;76.75
68179;BME280;54998;42.656;23.382;2022-07-10T00:09:54;94796.19;;;14.74;76.68
68179;BME280;54998;42.656;23.382;2022-07-10T00:12:19;94788.78;;;14.71;76.98
68179;BME280;54998;42.656;23.382;2022-07-10T00:14:45;94793.47;;;14.67;77.34
68179;BME280;54998;42.656;23.382;2022-07-10T00:17:10;94794.09;;;14.69;77.15
68179;BME280;54998;42.656;23.382;2022-07-10T00:19:36;94777.00;;;14.68;76.91
68179;BME280;54998;42.656;23.382;2022-07-10T00:22:01;94785.22;;;14.72;76.69
68179;BME280;54998;42.656;23.382;2022-07-10T00:24:27;94777.00;;;14.68;76.85
68179;BME280;54998;42.656;23.382;2022-07-10T00:26:52;94772.97;;;14.66;76.81
68179;BME280;54998;42.656;23.382;2022-07-10T00:29:17;94773.16;;;14.64;77.25
68179;BME280;54998;42.656;23.382;2022-07-10T00:31:43;94772.81;;;14.59;77.47
68179;BME280;54998;42.656;23.382;2022-07-10T00:34:08;94775.06;;;14.54;77.41
68179;BME280;54998;42.656;23.382;2022-07-10T00:36:34;94768.50;;;14.60;77.33
68179;BME280;54998;42.656;23.382;2022-07-10T00:38:59;94769.75;;;14.64;77.02
68179;BME280;54998;42.656;23.382;2022-07-10T00:41:25;94761.03;;;14.65;77.20
68179;BME280;54998;42.656;23.382;2022-07-10T00:43:58;94769.13;;;14.53;77.26
68179;BME280;54998;42.656;23.382;2022-07-10T00:46:24;94772.50;;;14.54;77.21
68179;BME280;54998;42.656;23.382;2022-07-10T00:48:50;94765.75;;;14.45;77.58
68179;BME280;54998;42.656;23.382;2022-07-10T00:51:17;94760.88;;;14.50;77.93
68179;BME280;54998;42.656;23.382;2022-07-10T00:53:46;94755.88;;;14.48;77.72
68179;BME280;54998;42.656;23.382;2022-07-10T00:56:15;94757.16;;;14.52;77.39
68179;BME280;54998;42.656;23.382;2022-07-10T00:58:43;94755.25;;;14.46;77.61
68179;BME280;54998;42.656;23.382;2022-07-10T01:01:09;94748.19;;;14.40;78.28
68179;BME280;54998;42.656;23.382;2022-07-10T01:03:35;94756.25;;;14.37;78.08
68179;BME280;54998;42.656;23.382;2022-07-10T01:06:00;94757.88;;;14.38;78.17
68179;BME280;54998;42.656;23.382;2022-07-10T01:10:54;94757.88;;;14.38;78.06
68179;BME280;54998;42.656;23.382;2022-07-10T01:13:21;94755.94;;;14.32;77.91
68179;BME280;54998;42.656;23.382;2022-07-10T01:15:47;94748.69;;;14.27;78.42
68179;BME280;54998;42.656;23.382;2022-07-10T01:18:14;94747.88;;;14.27;78.61
68179;BME280;54998;42.656;23.382;2022-07-10T01:20:40;94751.72;;;14.39;77.95
68179;BME280;54998;42.656;23.382;2022-07-10T01:23:05;94754.94;;;14.41;77.89
68179;BME280;54998;42.656;23.382;2022-07-10T01:25:31;94748.47;;;14.53;77.13
68179;BME280;54998;42.656;23.382;2022-07-10T01:27:56;94739.44;;;14.49;77.12
68179;BME280;54998;42.656;23.382;2022-07-10T01:30:24;94740.72;;;14.45;77.35
68179;BME280;54998;42.656;23.382;2022-07-10T01:32:50;94746.38;;;14.49;77.11
68179;BME280;54998;42.656;23.382;2022-07-10T01:35:15;94735.28;;;14.40;77.71
68179;BME280;54998;42.656;23.382;2022-07-10T01:37:41;94731.72;;;14.33;77.62
68179;BME280;54998;42.656;23.382;2022-07-10T01:40:08;94734.63;;;14.38;77.78
68179;BME280;54998;42.656;23.382;2022-07-10T01:42:33;94725.09;;;14.38;77.71
68179;BME280;54998;42.656;23.382;2022-07-10T01:44:59;94731.56;;;14.34;77.92
68179;BME280;54998;42.656;23.382;2022-07-10T01:47:25;94712.06;;;14.24;78.01
68179;BME280;54998;42.656;23.382;2022-07-10T01:49:53;94719.47;;;14.27;78.17
68179;BME280;54998;42.656;23.382;2022-07-10T01:52:21;94720.75;;;14.31;78.03
68179;BME280;54998;42.656;23.382;2022-07-10T01:54:48;94716.44;;;14.23;78.08
68179;BME280;54998;42.656;23.382;2022-07-10T01:57:14;94715.31;;;14.26;78.24
68179;BME280;54998;42.656;23.382;2022-07-10T01:59:40;94717.75;;;14.19;78.46
68179;BME280;54998;42.656;23.382;2022-07-10T02:02:06;94709.00;;;14.20;78.38
68179;BME280;54998;42.656;23.382;2022-07-10T02:04:31;94717.09;;;14.17;78.28
68179;BME280;54998;42.656;23.382;2022-07-10T02:07:07;94717.91;;;14.17;78.09
68179;BME280;54998;42.656;23.382;2022-07-10T02:09:32;94714.38;;;14.18;77.79
68179;BME280;54998;42.656;23.382;2022-07-10T02:11:58;94721.13;;;14.20;77.81
68179;BME280;54998;42.656;23.382;2022-07-10T02:14:23;94714.69;;;14.15;78.13
68179;BME280;54998;42.656;23.382;2022-07-10T02:16:49;94720.19;;;14.12;78.25
68179;BME280;54998;42.656;23.382;2022-07-10T02:19:14;94713.41;;;14.11;78.36
68179;BME280;54998;42.656;23.382;2022-07-10T02:21:39;94710.66;;;14.05;78.38
68179;BME280;54998;42.656;23.382;2022-07-10T02:24:05;94709.50;;;14.15;78.04
68179;BME280;54998;42.656;23.382;2022-07-10T02:26:30;94709.69;;;14.14;78.10
68179;BME280;54998;42.656;23.382;2022-07-10T02:28:56;94705.34;;;14.14;77.92
68179;BME280;54998;42.656;23.382;2022-07-10T02:31:21;94707.91;;;14.14;77.88
68179;BME280;54998;42.656;23.382;2022-07-10T02:33:47;94709.84;;;14.12;77.95
68179;BME280;54998;42.656;23.382;2022-07-10T02:36:12;94717.75;;;14.11;77.86
68179;BME280;54998;42.656;23.382;2022-07-10T02:38:38;94715.19;;;14.03;78.33
68179;BME280;54998;42.656;23.382;2022-07-10T02:41:03;94716.16;;;14.10;78.16
68179;BME280;54998;42.656;23.382;2022-07-10T02:43:29;94719.41;;;14.04;78.31
68179;BME280;54998;42.656;23.382;2022-07-10T02:45:54;94719.56;;;14.02;78.58
68179;BME280;54998;42.656;23.382;2022-07-10T02:48:19;94727.28;;;13.94;78.94
68179;BME280;54998;42.656;23.382;2022-07-10T02:50:45;94724.41;;;13.97;78.69
68179;BME280;54998;42.656;23.382;2022-07-10T02:53:10;94727.28;;;13.94;79.01
68179;BME280;54998;42.656;23.382;2022-07-10T02:55:36;94726.97;;;13.97;78.73
68179;BME280;54998;42.656;23.382;2022-07-10T02:58:02;94734.09;;;13.95;78.62
68179;BME280;54998;42.656;23.382;2022-07-10T03:00:28;94726.50;;;13.93;79.16
68179;BME280;54998;42.656;23.382;2022-07-10T03:02:54;94727.44;;;14.01;78.38
68179;BME280;54998;42.656;23.382;2022-07-10T03:05:21;94730.69;;;13.94;78.58
68179;BME280;54998;42.656;23.382;2022-07-10T03:07:46;94738.75;;;14.00;78.47
68179;BME280;54998;42.656;23.382;2022-07-10T03:10:12;94738.59;;;14.01;78.49
68179;BME280;54998;42.656;23.382;2022-07-10T03:12:37;94736.00;;;14.01;78.02
68179;BME280;54998;42.656;23.382;2022-07-10T03:15:04;94740.50;;;14.07;77.72
68179;BME280;54998;42.656;23.382;2022-07-10T03:17:31;94745.03;;;14.05;78.03
68179;BME280;54998;42.656;23.382;2022-07-10T03:19:56;94740.31;;;14.17;77.38
68179;BME280;54998;42.656;23.382;2022-07-10T03:22:22;94740.47;;;14.24;77.08
68179;BME280;54998;42.656;23.382;2022-07-10T03:24:47;94744.47;;;14.34;76.71
68179;BME280;54998;42.656;23.382;2022-07-10T03:29:40;94737.50;;;14.43;75.70
68179;BME280;54998;42.656;23.382;2022-07-10T03:32:08;94732.13;;;14.53;75.51
68179;BME280;54998;42.656;23.382;2022-07-10T03:34:34;94735.22;;;14.56;75.41
68179;BME280;54998;42.656;23.382;2022-07-10T03:37:00;94728.75;;;14.61;75.13
68179;BME280;54998;42.656;23.382;2022-07-10T03:39:28;94731.19;;;14.62;74.96
68179;BME280;54998;42.656;23.382;2022-07-10T03:41:54;94734.41;;;14.64;75.08
68179;BME280;54998;42.656;23.382;2022-07-10T03:44:19;94735.03;;;14.66;74.97
68179;BME280;54998;42.656;23.382;2022-07-10T03:46:45;94731.97;;;14.71;74.61
68179;BME280;54998;42.656;23.382;2022-07-10T03:49:11;94736.13;;;14.72;74.52
68179;BME280;54998;42.656;23.382;2022-07-10T03:51:36;94721.78;;;14.69;74.86
68179;BME280;54998;42.656;23.382;2022-07-10T03:54:01;94725.81;;;14.72;75.05
68179;BME280;54998;42.656;23.382;2022-07-10T03:56:27;94726.75;;;14.79;74.84
68179;BME280;54998;42.656;23.382;2022-07-10T03:59:11;94729.50;;;14.77;74.75
68179;BME280;54998;42.656;23.382;2022-07-10T04:01:36;94730.91;;;14.88;73.85
68179;BME280;54998;42.656;23.382;2022-07-10T04:04:02;94723.16;;;14.88;73.94
68179;BME280;54998;42.656;23.382;2022-07-10T04:06:28;94722.66;;;14.93;73.59
68179;BME280;54998;42.656;23.382;2022-07-10T04:08:53;94719.63;;;14.81;74.03
68179;BME280;54998;42.656;23.382;2022-07-10T04:11:19;94715.44;;;14.80;74.59
68179;BME280;54998;42.656;23.382;2022-07-10T04:13:44;94708.44;;;14.89;73.99
68179;BME280;54998;42.656;23.382;2022-07-10T04:16:10;94710.47;;;15.02;73.47
68179;BME280;54998;42.656;23.382;2022-07-10T04:18:39;94707.91;;;15.02;73.64
68179;BME280;54998;42.656;23.382;2022-07-10T04:21:05;94715.41;;;15.11;72.96
68179;BME280;54998;42.656;23.382;2022-07-10T04:23:32;94716.44;;;15.02;73.02
68179;BME280;54998;42.656;23.382;2022-07-10T04:25:57;94712.72;;;15.05;73.23
68179;BME280;54998;42.656;23.382;2022-07-10T04:28:23;94714.28;;;15.14;73.01
68179;BME280;54998;42.656;23.382;2022-07-10T04:30:48;94707.84;;;15.33;72.46
68179;BME280;54998;42.656;23.382;2022-07-10T04:33:14;94704.97;;;15.51;71.55
68179;BME280;54998;42.656;23.382;2022-07-10T04:35:39;94720.13;;;15.54;71.56
68179;BME280;54998;42.656;23.382;2022-07-10T04:38:04;94711.63;;;15.68;70.49
68179;BME280;54998;42.656;23.382;2022-07-10T04:40:30;94715.97;;;15.53;70.96
68179;BME280;54998;42.656;23.382;2022-07-10T04:42:55;94708.78;;;15.40;71.64
68179;BME280;54998;42.656;23.382;2022-07-10T04:45:21;94714.91;;;15.62;71.40
68179;BME280;54998;42.656;23.382;2022-07-10T04:47:46;94709.09;;;15.60;71.53
68179;BME280;54998;42.656;23.382;2022-07-10T04:50:11;94714.34;;;15.75;70.81
68179;BME280;54998;42.656;23.382;2022-07-10T04:52:37;94715.53;;;15.64;71.11
68179;BME280;54998;42.656;23.382;2022-07-10T04:55:02;94706.97;;;15.64;70.85
68179;BME280;54998;42.656;23.382;2022-07-10T04:57:28;94710.59;;;15.54;70.92
68179;BME280;54998;42.656;23.382;2022-07-10T04:59:53;94710.06;;;15.59;70.79
68179;BME280;54998;42.656;23.382;2022-07-10T05:02:19;94703.22;;;15.66;70.61
68179;BME280;54998;42.656;23.382;2022-07-10T05:04:44;94708.22;;;15.91;69.96
68179;BME280;54998;42.656;23.382;2022-07-10T05:07:10;94710.28;;;16.10;68.43
68179;BME280;54998;42.656;23.382;2022-07-10T05:09:36;94715.22;;;16.20;68.25
68179;BME280;54998;42.656;23.382;2022-07-10T05:12:01;94709.03;;;16.21;68.53
68179;BME280;54998;42.656;23.382;2022-07-10T05:14:27;94710.47;;;16.23;68.55
68179;BME280;54998;42.656;23.382;2022-07-10T05:16:52;94694.03;;;16.16;68.25
68179;BME280;54998;42.656;23.382;2022-07-10T05:19:18;94716.13;;;17.30;64.92
68179;BME280;54998;42.656;23.382;2022-07-10T05:21:43;94694.63;;;18.42;60.46
68179;BME280;54998;42.656;23.382;2022-07-10T05:24:09;94705.00;;;18.42;60.24
68179;BME280;54998;42.656;23.382;2022-07-10T05:26:34;94707.44;;;19.93;56.27
68179;BME280;54998;42.656;23.382;2022-07-10T05:29:01;94702.81;;;22.07;49.81
68179;BME280;54998;42.656;23.382;2022-07-10T05:31:26;94698.34;;;20.94;52.24
68179;BME280;54998;42.656;23.382;2022-07-10T05:33:52;94698.50;;;21.94;49.61
68179;BME280;54998;42.656;23.382;2022-07-10T05:36:17;94703.03;;;20.79;52.53
68179;BME280;54998;42.656;23.382;2022-07-10T05:38:43;94696.41;;;20.04;54.10
68179;BME280;54998;42.656;23.382;2022-07-10T05:41:08;94711.25;;;21.21;51.53
68179;BME280;54998;42.656;23.382;2022-07-10T05:43:34;94699.59;;;21.87;49.33
68179;BME280;54998;42.656;23.382;2022-07-10T05:45:59;94705.97;;;21.66;50.53
68179;BME280;54998;42.656;23.382;2022-07-10T05:48:25;94702.75;;;21.39;50.64
68179;BME280;54998;42.656;23.382;2022-07-10T05:50:50;94698.00;;;19.92;54.12
68179;BME280;54998;42.656;23.382;2022-07-10T05:53:16;94696.50;;;21.08;51.51
68179;BME280;54998;42.656;23.382;2022-07-10T06:09:48;94693.84;;;22.22;47.99
68179;BME280;54998;42.656;23.382;2022-07-10T06:12:14;94692.94;;;23.50;44.39
68179;BME280;54998;42.656;23.382;2022-07-10T06:14:41;94693.91;;;21.71;48.63
68179;BME280;54998;42.656;23.382;2022-07-10T06:17:06;94698.06;;;23.15;45.25
68179;BME280;54998;42.656;23.382;2022-07-10T06:19:32;94700.91;;;23.86;43.17
68179;BME280;54998;42.656;23.382;2022-07-10T06:21:57;94705.19;;;23.68;43.50
68179;BME280;54998;42.656;23.382;2022-07-10T06:24:41;94697.72;;;24.19;42.85
68179;BME280;54998;42.656;23.382;2022-07-10T06:27:07;94695.63;;;23.32;44.63
68179;BME280;54998;42.656;23.382;2022-07-10T06:29:32;94696.47;;;24.97;40.05
68179;BME280;54998;42.656;23.382;2022-07-10T06:31:58;94688.47;;;24.40;41.23
68179;BME280;54998;42.656;23.382;2022-07-10T06:34:23;94683.66;;;23.66;42.95
68179;BME280;54998;42.656;23.382;2022-07-10T06:36:48;94687.84;;;23.55;43.84
68179;BME280;54998;42.656;23.382;2022-07-10T06:39:14;94688.53;;;25.21;40.64
68179;BME280;54998;42.656;23.382;2022-07-10T06:41:39;94689.34;;;26.57;38.32
68179;BME280;54998;42.656;23.382;2022-07-10T06:44:05;94692.63;;;28.90;34.02
68179;BME280;54998;42.656;23.382;2022-07-10T06:46:31;94693.19;;;29.02;32.62
68179;BME280;54998;42.656;23.382;2022-07-10T06:48:57;94683.34;;;27.60;35.20
68179;BME280;54998;42.656;23.382;2022-07-10T06:51:23;94683.50;;;25.19;39.85
68179;BME280;54998;42.656;23.382;2022-07-10T06:53:49;94666.72;;;24.16;42.06
68179;BME280;54998;42.656;23.382;2022-07-10T06:56:15;94679.72;;;25.61;39.16
68179;BME280;54998;42.656;23.382;2022-07-10T06:58:41;94686.63;;;26.35;38.01
68179;BME280;54998;42.656;23.382;2022-07-10T07:01:07;94667.38;;;26.51;36.92
68179;BME280;54998;42.656;23.382;2022-07-10T07:03:32;94677.31;;;25.88;38.41
68179;BME280;54998;42.656;23.382;2022-07-10T07:05:58;94677.41;;;28.12;34.19
68179;BME280;54998;42.656;23.382;2022-07-10T07:08:23;94676.16;;;27.82;35.45
68179;BME280;54998;42.656;23.382;2022-07-10T07:10:48;94679.31;;;25.52;38.67
68179;BME280;54998;42.656;23.382;2022-07-10T07:13:14;94671.28;;;25.13;39.64
68179;BME280;54998;42.656;23.382;2022-07-10T07:15:39;94677.41;;;25.19;39.46
68179;BME280;54998;42.656;23.382;2022-07-10T07:18:08;94664.75;;;26.51;37.99
68179;BME280;54998;42.656;23.382;2022-07-10T07:20:36;94674.44;;;27.98;34.47
68179;BME280;54998;42.656;23.382;2022-07-10T07:23:21;94675.31;;;27.77;35.26
68179;BME280;54998;42.656;23.382;2022-07-10T07:25:47;94674.03;;;29.68;32.40
68179;BME280;54998;42.656;23.382;2022-07-10T07:28:14;94679.25;;;29.17;32.39
68179;BME280;54998;42.656;23.382;2022-07-10T07:30:44;94677.19;;;28.19;34.52
68179;BME280;54998;42.656;23.382;2022-07-10T07:33:10;94676.78;;;30.75;30.75
68179;BME280;54998;42.656;23.382;2022-07-10T07:35:35;94658.94;;;29.38;32.51
68179;BME280;54998;42.656;23.382;2022-07-10T07:38:02;94670.44;;;28.33;34.58
68179;BME280;54998;42.656;23.382;2022-07-10T07:40:28;94675.00;;;28.05;34.92
68179;BME280;54998;42.656;23.382;2022-07-10T07:42:54;94673.75;;;27.81;35.54
68179;BME280;54998;42.656;23.382;2022-07-10T07:45:20;94666.25;;;29.00;33.71
68179;BME280;54998;42.656;23.382;2022-07-10T07:47:48;94671.28;;;30.61;31.03
68179;BME280;54998;42.656;23.382;2022-07-10T07:50:16;94671.28;;;29.02;33.10
68179;BME280;54998;42.656;23.382;2022-07-10T07:52:42;94670.53;;;29.27;33.11
68179;BME280;54998;42.656;23.382;2022-07-10T07:55:08;94669.06;;;32.12;28.90
68179;BME280;54998;42.656;23.382;2022-07-10T07:57:33;94664.31;;;30.90;30.61
68179;BME280;54998;42.656;23.382;2022-07-10T07:59:59;94662.53;;;32.77;27.99
68179;BME280;54998;42.656;23.382;2022-07-10T08:02:24;94652.81;;;31.05;30.22
68179;BME280;54998;42.656;23.382;2022-07-10T08:04:49;94652.66;;;31.31;29.87
68179;BME280;54998;42.656;23.382;2022-07-10T08:07:15;94658.19;;;32.62;28.16
68179;BME280;54998;42.656;23.382;2022-07-10T08:09:40;94651.50;;;34.30;25.49
68179;BME280;54998;42.656;23.382;2022-07-10T08:12:06;94647.13;;;30.78;30.82
68179;BME280;54998;42.656;23.382;2022-07-10T08:14:31;94647.00;;;33.65;26.25
68179;BME280;54998;42.656;23.382;2022-07-10T08:16:57;94650.38;;;31.14;29.48
68179;BME280;54998;42.656;23.382;2022-07-10T08:19:22;94649.47;;;32.32;27.43
68179;BME280;54998;42.656;23.382;2022-07-10T08:21:48;94649.28;;;32.52;27.15
68179;BME280;54998;42.656;23.382;2022-07-10T08:24:13;94653.03;;;32.46;27.49
68179;BME280;54998;42.656;23.382;2022-07-10T08:26:40;94656.28;;;29.18;31.98
68179;BME280;54998;42.656;23.382;2022-07-10T08:29:05;94657.84;;;27.11;35.22
68179;BME280;54998;42.656;23.382;2022-07-10T08:31:30;94656.06;;;27.76;34.69
68179;BME280;54998;42.656;23.382;2022-07-10T08:33:58;94653.94;;;30.94;29.45
68179;BME280;54998;42.656;23.382;2022-07-10T08:36:24;94648.78;;;28.36;32.12
68179;BME280;54998;42.656;23.382;2022-07-10T08:38:49;94659.69;;;28.02;32.88
68179;BME280;54998;42.656;23.382;2022-07-10T08:41:17;94657.38;;;27.74;33.38
68179;BME280;54998;42.656;23.382;2022-07-10T08:43:42;94655.41;;;27.32;33.75
68179;BME280;54998;42.656;23.382;2022-07-10T08:46:11;94653.66;;;29.43;30.56
68179;BME280;54998;42.656;23.382;2022-07-10T08:48:38;94648.25;;;31.21;28.29
68179;BME280;54998;42.656;23.382;2022-07-10T08:51:07;94659.38;;;30.53;29.47
68179;BME280;54998;42.656;23.382;2022-07-10T08:53:35;94652.81;;;28.44;31.70
68179;BME280;54998;42.656;23.382;2022-07-10T08:56:01;94651.59;;;27.82;32.98
68179;BME280;54998;42.656;23.382;2022-07-10T08:58:26;94642.31;;;27.15;33.48
68179;BME280;54998;42.656;23.382;2022-07-10T09:00:52;94649.88;;;26.18;36.16
68179;BME280;54998;42.656;23.382;2022-07-10T09:03:18;94640.91;;;29.04;31.61
68179;BME280;54998;42.656;23.382;2022-07-10T09:05:44;94645.63;;;32.19;26.81
68179;BME280;54998;42.656;23.382;2022-07-10T09:08:22;94644.78;;;33.53;25.09
68179;BME280;54998;42.656;23.382;2022-07-10T09:10:48;94649.38;;;33.99;24.35
68179;BME280;54998;42.656;23.382;2022-07-10T09:13:13;94644.41;;;34.81;23.74
68179;BME280;54998;42.656;23.382;2022-07-10T09:15:39;94636.88;;;32.19;26.34
68179;BME280;54998;42.656;23.382;2022-07-10T09:18:05;94638.81;;;30.35;28.23
68179;BME280;54998;42.656;23.382;2022-07-10T09:20:39;94640.72;;;29.67;29.59
68179;BME280;54998;42.656;23.382;2022-07-10T09:25:37;94631.88;;;34.81;23.46
68179;BME280;54998;42.656;23.382;2022-07-10T09:28:03;94623.59;;;33.81;24.28
68179;BME280;54998;42.656;23.382;2022-07-10T09:30:37;94623.78;;;30.85;27.53
68179;BME280;54998;42.656;23.382;2022-07-10T09:33:26;94617.97;;;29.82;29.31
68179;BME280;54998;42.656;23.382;2022-07-10T09:41:18;94619.97;;;36.45;22.07
68179;BME280;54998;42.656;23.382;2022-07-10T09:49:14;94617.25;;;33.06;25.08
68179;BME280;54998;42.656;23.382;2022-07-10T09:51:42;94603.69;;;35.03;23.75
68179;BME280;54998;42.656;23.382;2022-07-10T09:54:09;94611.34;;;31.30;27.09
68179;BME280;54998;42.656;23.382;2022-07-10T09:56:48;94613.50;;;29.41;29.30
68179;BME280;54998;42.656;23.382;2022-07-10T09:59:19;94609.56;;;28.50;31.44
68179;BME280;54998;42.656;23.382;2022-07-10T10:01:50;94606.28;;;30.84;27.90
68179;BME280;54998;42.656;23.382;2022-07-10T10:04:26;94598.28;;;32.26;25.65
68179;BME280;54998;42.656;23.382;2022-07-10T10:06:56;94597.66;;;31.52;27.06
68179;BME280;54998;42.656;23.382;2022-07-10T10:09:28;94598.69;;;31.85;26.60
68179;BME280;54998;42.656;23.382;2022-07-10T10:11:59;94601.00;;;33.64;24.22
68179;BME280;54998;42.656;23.382;2022-07-10T10:14:29;94594.47;;;35.99;21.46
68179;BME280;54998;42.656;23.382;2022-07-10T10:16:56;94586.78;;;36.29;21.43
68179;BME280;54998;42.656;23.382;2022-07-10T10:19:23;94592.78;;;36.43;20.55
68179;BME280;54998;42.656;23.382;2022-07-10T10:22:08;94590.47;;;33.21;24.87
68179;BME280;54998;42.656;23.382;2022-07-10T10:24:34;94583.97;;;32.03;25.09
68179;BME280;54998;42.656;23.382;2022-07-10T10:27:00;94584.50;;;31.37;26.95
68179;BME280;54998;42.656;23.382;2022-07-10T10:29:26;94587.50;;;30.15;28.76
68179;BME280;54998;42.656;23.382;2022-07-10T10:31:53;94581.50;;;29.33;29.40
68179;BME280;54998;42.656;23.382;2022-07-10T10:34:41;94576.41;;;28.12;30.26
68179;BME280;54998;42.656;23.382;2022-07-10T10:39:55;94575.00;;;27.24;31.54
68179;BME280;54998;42.656;23.382;2022-07-10T10:42:43;94570.53;;;25.87;34.54
68179;BME280;54998;42.656;23.382;2022-07-10T10:45:33;94579.88;;;26.83;33.80
68179;BME280;54998;42.656;23.382;2022-07-10T10:48:10;94582.56;;;26.88;33.26
68179;BME280;54998;42.656;23.382;2022-07-10T10:50:47;94582.75;;;25.93;35.09
68179;BME280;54998;42.656;23.382;2022-07-10T10:53:21;94581.38;;;26.30;34.63
68179;BME280;54998;42.656;23.382;2022-07-10T10:58:27;94581.59;;;26.28;34.24
68179;BME280;54998;42.656;23.382;2022-07-10T11:01:03;94578.53;;;25.75;36.00
68179;BME280;54998;42.656;23.382;2022-07-10T11:03:29;94566.09;;;26.27;35.23
68179;BME280;54998;42.656;23.382;2022-07-10T11:05:54;94575.91;;;26.14;35.95
68179;BME280;54998;42.656;23.382;2022-07-10T11:08:40;94567.56;;;25.45;35.85
68179;BME280;54998;42.656;23.382;2022-07-10T11:13:59;94569.75;;;25.87;36.22
68179;BME280;54998;42.656;23.382;2022-07-10T11:16:25;94570.97;;;27.16;33.67
68179;BME280;54998;42.656;23.382;2022-07-10T11:18:54;94564.16;;;26.93;34.61
68179;BME280;54998;42.656;23.382;2022-07-10T11:21:24;94558.44;;;27.29;33.53
68179;BME280;54998;42.656;23.382;2022-07-10T11:26:24;94566.63;;;26.51;35.14
68179;BME280;54998;42.656;23.382;2022-07-10T11:28:52;94560.81;;;25.32;37.18
68179;BME280;54998;42.656;23.382;2022-07-10T11:31:22;94554.16;;;26.19;35.78
68179;BME280;54998;42.656;23.382;2022-07-10T11:33:49;94557.09;;;26.22;35.80
68179;BME280;54998;42.656;23.382;2022-07-10T11:36:17;94560.41;;;26.57;35.12
68179;BME280;54998;42.656;23.382;2022-07-10T11:38:44;94560.53;;;25.16;37.29
68179;BME280;54998;42.656;23.382;2022-07-10T11:41:16;94563.38;;;25.27;37.75
68179;BME280;54998;42.656;23.382;2022-07-10T11:43:49;94570.59;;;24.91;37.52
68179;BME280;54998;42.656;23.382;2022-07-10T11:46:16;94569.16;;;24.14;37.66
68179;BME280;54998;42.656;23.382;2022-07-10T11:48:42;94564.63;;;24.78;37.95
68179;BME280;54998;42.656;23.382;2022-07-10T11:51:37;94567.50;;;25.23;36.70
68179;BME280;54998;42.656;23.382;2022-07-10T11:54:09;94568.16;;;24.55;36.84
68179;BME280;54998;42.656;23.382;2022-07-10T11:56:56;94571.09;;;24.59;36.80
68179;BME280;54998;42.656;23.382;2022-07-10T11:59:29;94567.56;;;25.45;35.36
68179;BME280;54998;42.656;23.382;2022-07-10T12:01:55;94567.09;;;26.03;35.16
68179;BME280;54998;42.656;23.382;2022-07-10T12:04:22;94560.34;;;26.79;33.23
68179;BME280;54998;42.656;23.382;2022-07-10T12:09:25;94564.66;;;26.90;33.18
68179;BME280;54998;42.656;23.382;2022-07-10T12:12:07;94567.47;;;26.78;33.18
68179;BME280;54998;42.656;23.382;2022-07-10T12:14:34;94559.53;;;26.29;33.74
68179;BME280;54998;42.656;23.382;2022-07-10T12:17:00;94556.75;;;26.63;33.11
68179;BME280;54998;42.656;23.382;2022-07-10T12:19:28;94563.03;;;27.11;33.13
68179;BME280;54998;42.656;23.382;2022-07-10T12:21:56;94552.97;;;26.54;32.90
68179;BME280;54998;42.656;23.382;2022-07-10T12:24:22;94560.19;;;25.97;34.77
68179;BME280;54998;42.656;23.382;2022-07-10T12:26:49;94555.66;;;25.76;35.74
68179;BME280;54998;42.656;23.382;2022-07-10T12:29:22;94560.47;;;25.28;36.12
68179;BME280;54998;42.656;23.382;2022-07-10T12:31:50;94557.41;;;25.02;36.34
68179;BME280;54998;42.656;23.382;2022-07-10T12:34:17;94558.47;;;24.44;37.47
68179;BME280;54998;42.656;23.382;2022-07-10T13:10:21;94564.47;;;24.16;35.23
68179;BME280;54998;42.656;23.382;2022-07-10T13:12:47;94541.50;;;23.83;35.00
68179;BME280;54998;42.656;23.382;2022-07-10T13:15:12;94558.34;;;23.63;34.89
68179;BME280;54998;42.656;23.382;2022-07-10T13:17:44;94551.28;;;24.39;34.74
68179;BME280;54998;42.656;23.382;2022-07-10T13:20:10;94549.28;;;24.87;34.07
68179;BME280;54998;42.656;23.382;2022-07-10T13:22:35;94559.66;;;25.11;34.86
68179;BME280;54998;42.656;23.382;2022-07-10T13:25:01;94553.63;;;25.10;36.54
68179;BME280;54998;42.656;23.382;2022-07-10T13:27:26;94554.84;;;25.53;35.11
68179;BME280;54998;42.656;23.382;2022-07-10T13:29:52;94547.91;;;26.03;34.85
68179;BME280;54998;42.656;23.382;2022-07-10T13:32:18;94550.41;;;26.15;33.79
68179;BME280;54998;42.656;23.382;2022-07-10T13:34:43;94545.44;;;25.24;32.16
68179;BME280;54998;42.656;23.382;2022-07-10T13:37:09;94543.63;;;24.50;32.54
68179;BME280;54998;42.656;23.382;2022-07-10T13:39:38;94554.75;;;24.69;32.55
68179;BME280;54998;42.656;23.382;2022-07-10T13:42:04;94556.28;;;24.82;32.69
68179;BME280;54998;42.656;23.382;2022-07-10T13:44:29;94549.72;;;24.67;31.07
68179;BME280;54998;42.656;23.382;2022-07-10T13:46:56;94549.53;;;24.57;30.62
68179;BME280;54998;42.656;23.382;2022-07-10T13:49:21;94541.41;;;24.30;31.30
68179;BME280;54998;42.656;23.382;2022-07-10T13:51:47;94557.00;;;24.77;30.18
68179;BME280;54998;42.656;23.382;2022-07-10T13:54:13;94555.66;;;24.34;30.33
68179;BME280;54998;42.656;23.382;2022-07-10T13:56:39;94548.31;;;24.07;31.50
68179;BME280;54998;42.656;23.382;2022-07-10T13:59:04;94548.66;;;23.64;31.76
68179;BME280;54998;42.656;23.382;2022-07-10T14:01:30;94545.38;;;23.33;32.64
68179;BME280;54998;42.656;23.382;2022-07-10T14:03:55;94538.72;;;23.07;33.87
68179;BME280;54998;42.656;23.382;2022-07-10T14:06:21;94550.28;;;23.29;34.29
68179;BME280;54998;42.656;23.382;2022-07-10T14:08:46;94547.19;;;23.32;33.71